createdAt,value
2023-05-13T00:01:21.012Z,100720.25
2023-05-13T00:03:47.737Z,100719.38
2023-05-13T00:06:14.653Z,100730.16
2023-05-13T00:08:41.243Z,100719.38
2023-05-13T00:11:08.338Z,100718.66
2023-05-13T00:13:34.955Z,100724.28
2023-05-13T00:16:02.836Z,100720.75
2023-05-13T00:18:29.867Z,100715.50
2023-05-13T00:20:56.560Z,100719.19
2023-05-13T00:23:23.266Z,100721.75
2023-05-13T00:25:49.885Z,100714.88
2023-05-13T00:28:16.976Z,100725.63
2023-05-13T00:30:45.486Z,100719.50
2023-05-13T00:33:12.197Z,100722.47
2023-05-13T00:35:38.885Z,100721.00
2023-05-13T00:38:05.478Z,100726.66
2023-05-13T00:40:34.572Z,100727.66
2023-05-13T00:43:01.260Z,100721.41
2023-05-13T00:45:28.022Z,100728.47
2023-05-13T00:47:54.820Z,100732.03
2023-05-13T00:50:21.754Z,100726.50
2023-05-13T00:52:51.057Z,100733.63
2023-05-13T00:55:18.115Z,100736.31
2023-05-13T00:57:44.645Z,100732.03
2023-05-13T01:00:11.768Z,100726.91
2023-05-13T01:03:01.068Z,100734.97
2023-05-13T01:05:42.423Z,100727.78
2023-05-13T01:08:11.908Z,100733.38
2023-05-13T01:10:47.629Z,100734.50
2023-05-13T01:13:23.712Z,100738.75
2023-05-13T01:15:59.872Z,100737.06
2023-05-13T01:18:36.918Z,100741.72
2023-05-13T01:21:05.330Z,100741.84
2023-05-13T01:23:32.112Z,100745.41
2023-05-13T01:25:58.692Z,100732.06
2023-05-13T01:28:25.545Z,100743.66
2023-05-13T01:30:52.499Z,100741.25
2023-05-13T01:33:19.296Z,100738.69
2023-05-13T01:35:47.445Z,100745.03
2023-05-13T01:38:15.140Z,100739.78
2023-05-13T01:40:42.687Z,100745.53
2023-05-13T01:43:09.307Z,100746.25
2023-05-13T01:45:36.140Z,100748.34
2023-05-13T01:48:02.871Z,100755.31
2023-05-13T01:50:29.740Z,100740.16
2023-05-13T01:52:57.392Z,100738.31
2023-05-13T01:55:23.957Z,100747.47
2023-05-13T01:57:50.593Z,100745.94
2023-05-13T02:00:17.549Z,100747.47
2023-05-13T02:02:44.640Z,100744.94
2023-05-13T02:05:11.332Z,100745.94
2023-05-13T02:07:37.945Z,100744.78
2023-05-13T02:10:04.911Z,100749.34
2023-05-13T02:12:31.444Z,100743.84
2023-05-13T02:14:58.175Z,100745.44
2023-05-13T02:17:24.817Z,100750.94
2023-05-13T02:19:51.548Z,100754.59
2023-05-13T02:22:18.126Z,100747.75
2023-05-13T02:24:44.741Z,100750.66
2023-05-13T02:27:12.938Z,100760.72
2023-05-13T02:29:39.720Z,100753.75
2023-05-13T02:32:06.610Z,100747.53
2023-05-13T02:34:33.253Z,100753.88
2023-05-13T02:36:59.806Z,100757.53
2023-05-13T02:39:26.879Z,100757.53
2023-05-13T02:41:53.482Z,100759.25
2023-05-13T02:44:20.095Z,100760.09
2023-05-13T02:46:46.639Z,100757.53
2023-05-13T02:49:14.091Z,100763.19
2023-05-13T02:51:40.869Z,100760.59
2023-05-13T02:54:07.465Z,100768.66
2023-05-13T02:56:34.114Z,100763.28
2023-05-13T02:59:00.960Z,100770.75
2023-05-13T03:01:27.696Z,100765.59
2023-05-13T03:03:54.361Z,100764.78
2023-05-13T03:06:21.030Z,100764.78
2023-05-13T03:08:47.704Z,100764.16
2023-05-13T03:11:14.268Z,100766.59
2023-05-13T03:13:40.944Z,100768.28
2023-05-13T03:16:07.645Z,100769.66
2023-05-13T03:18:35.382Z,100763.78
2023-05-13T03:21:02.082Z,100772.72
2023-05-13T03:23:29.951Z,100764.88
2023-05-13T03:25:56.623Z,100763.78
2023-05-13T03:28:23.167Z,100773.44
2023-05-13T03:30:49.928Z,100775.25
2023-05-13T03:33:16.572Z,100777.47
2023-05-13T03:35:43.120Z,100778.31
2023-05-13T03:38:09.683Z,100785.66
2023-05-13T03:40:36.262Z,100787.38
2023-05-13T03:43:02.889Z,100782.59
2023-05-13T03:45:29.476Z,100782.50
2023-05-13T03:47:56.814Z,100784.19
2023-05-13T03:50:23.687Z,100794.84
2023-05-13T03:52:50.736Z,100795.06
2023-05-13T03:55:17.301Z,100793.59
2023-05-13T03:57:48.342Z,100795.19
2023-05-13T04:00:15.691Z,100798.97
2023-05-13T04:02:42.518Z,100796.03
2023-05-13T04:05:09.653Z,100804.97
2023-05-13T04:07:36.386Z,100808.50
2023-05-13T04:10:03.058Z,100805.72
2023-05-13T04:12:30.919Z,100809.38
2023-05-13T04:14:57.540Z,100805.22
2023-05-13T04:17:24.259Z,100802.41
2023-05-13T04:19:54.790Z,100804.13
2023-05-13T04:22:21.977Z,100808.41
2023-05-13T04:24:52.044Z,100808.41
2023-05-13T04:27:18.743Z,100815.59
2023-05-13T04:29:45.444Z,100811.09
2023-05-13T04:32:16.062Z,100809.38
2023-05-13T04:34:42.828Z,100817.19
2023-05-13T04:37:09.508Z,100825.84
2023-05-13T04:39:36.220Z,100823.78
2023-05-13T04:42:02.800Z,100826.34
2023-05-13T04:44:29.405Z,100820.75
2023-05-13T04:46:55.993Z,100821.34
2023-05-13T04:49:22.560Z,100820.25
2023-05-13T04:51:49.370Z,100829.91
2023-05-13T04:54:16.253Z,100825.75
2023-05-13T04:56:42.859Z,100838.22
2023-05-13T04:59:09.850Z,100834.44
2023-05-13T05:01:36.494Z,100835.41
2023-05-13T05:04:03.127Z,100830.88
2023-05-13T05:06:29.694Z,100834.31
2023-05-13T05:08:56.643Z,100836.25
2023-05-13T05:11:23.206Z,100832.72
2023-05-13T05:13:49.768Z,100836.03
2023-05-13T05:16:16.352Z,100841.16
2023-05-13T05:18:43.626Z,100836.25
2023-05-13T05:21:10.668Z,100840.91
2023-05-13T05:23:37.267Z,100839.81
2023-05-13T05:26:10.972Z,100845.06
2023-05-13T05:28:40.113Z,100840.28
2023-05-13T05:31:07.226Z,100848.09
2023-05-13T05:33:33.825Z,100852.53
2023-05-13T05:36:00.391Z,100855.06
2023-05-13T05:38:27.225Z,100851.44
2023-05-13T05:40:54.013Z,100853.84
2023-05-13T05:43:20.684Z,100853.75
2023-05-13T05:45:47.315Z,100854.72
2023-05-13T05:48:13.948Z,100850.06
2023-05-13T05:50:41.640Z,100847.50
2023-05-13T05:53:08.174Z,100856.03
2023-05-13T05:55:34.889Z,100859.59
2023-05-13T05:58:05.471Z,100853.13
2023-05-13T06:00:33.367Z,100859.34
2023-05-13T06:03:00.213Z,100856.66
2023-05-13T06:05:27.032Z,100860.13
2023-05-13T06:07:53.609Z,100865.97
2023-05-13T06:10:20.599Z,100856.94
2023-05-13T06:12:47.276Z,100858.38
2023-05-13T06:15:13.876Z,100859.97
2023-05-13T06:17:40.547Z,100860.56
2023-05-13T06:20:07.523Z,100868.13
2023-05-13T06:22:34.447Z,100868.00
2023-05-13T06:25:01.090Z,100865.09
2023-05-13T06:27:27.673Z,100870.47
2023-05-13T06:29:54.302Z,100873.00
2023-05-13T06:32:20.943Z,100870.81
2023-05-13T06:34:48.396Z,100870.56
2023-05-13T06:37:15.461Z,100871.41
2023-05-13T06:39:42.037Z,100871.88
2023-05-13T06:42:08.611Z,100872.75
2023-05-13T06:44:35.320Z,100865.53
2023-05-13T06:47:03.067Z,100874.44
2023-05-13T06:49:29.691Z,100877.75
2023-05-13T06:51:56.693Z,100868.81
2023-05-13T06:54:23.305Z,100870.66
2023-05-13T06:56:49.951Z,100864.88
2023-05-13T06:59:16.570Z,100863.03
2023-05-13T07:01:43.311Z,100862.91
2023-05-13T07:04:09.941Z,100866.69
2023-05-13T07:06:36.772Z,100866.03
2023-05-13T07:09:08.015Z,100869.34
2023-05-13T07:11:35.912Z,100874.19
2023-05-13T07:14:02.513Z,100867.03
2023-05-13T07:16:29.326Z,100863.31
2023-05-13T07:18:55.900Z,100860.91
2023-05-13T07:21:22.536Z,100848.50
2023-05-13T07:23:49.241Z,100860.53
2023-05-13T07:26:15.882Z,100853.91
2023-05-13T07:28:43.455Z,100871.03
2023-05-13T07:31:10.434Z,100863.66
2023-05-13T07:33:37.189Z,100867.53
2023-05-13T07:36:04.035Z,100870.81
2023-05-13T07:38:30.625Z,100871.25
2023-05-13T07:40:57.199Z,100865.88
2023-05-13T07:43:24.094Z,100872.88
2023-05-13T07:45:51.389Z,100871.44
2023-05-13T07:48:18.661Z,100869.06
2023-05-13T07:50:46.115Z,100869.63
2023-05-13T07:53:12.942Z,100877.03
2023-05-13T07:55:39.583Z,100878.59
2023-05-13T07:58:06.698Z,100886.97
2023-05-13T08:00:33.399Z,100887.81
2023-05-13T08:03:00.104Z,100883.25
2023-05-13T08:05:26.843Z,100889.78
2023-05-13T08:07:53.438Z,100893.59
2023-05-13T08:10:20.088Z,100897.00
2023-05-13T08:12:51.173Z,100897.13
2023-05-13T08:15:19.078Z,100905.59
2023-05-13T08:17:45.752Z,100907.28
2023-05-13T08:20:12.525Z,100907.69
2023-05-13T08:22:39.128Z,100908.81
2023-05-13T08:25:07.139Z,100921.91
2023-05-13T08:27:35.028Z,100917.47
2023-05-13T08:30:01.617Z,100915.91
2023-05-13T08:32:28.218Z,100920.91
2023-05-13T08:34:54.857Z,100929.03
2023-05-13T08:37:21.759Z,100934.00
2023-05-13T08:39:48.311Z,100925.81
2023-05-13T08:42:19.359Z,100934.09
2023-05-13T08:44:46.903Z,100930.59
2023-05-13T08:47:16.044Z,100928.38
2023-05-13T08:49:42.896Z,100922.53
2023-05-13T08:52:09.481Z,100927.97
2023-05-13T08:54:37.993Z,100927.56
2023-05-13T08:57:05.077Z,100932.56
2023-05-13T08:59:31.665Z,100927.47
2023-05-13T09:02:00.291Z,100930.88
2023-05-13T09:04:26.952Z,100921.66
2023-05-13T09:06:53.888Z,100926.22
2023-05-13T09:09:20.953Z,100923.22
2023-05-13T09:11:48.675Z,100930.63
2023-05-13T09:14:19.533Z,100920.53
2023-05-13T09:16:47.925Z,100922.66
2023-05-13T09:19:14.726Z,100920.69
2023-05-13T09:21:43.746Z,100918.28
2023-05-13T09:24:11.670Z,100925.66
2023-05-13T09:26:39.101Z,100920.13
2023-05-13T09:29:20.674Z,100923.09
2023-05-13T09:31:51.222Z,100931.47
2023-05-13T09:34:27.915Z,100925.66
2023-05-13T09:37:08.354Z,100925.06
2023-05-13T09:39:39.867Z,100934.41
2023-05-13T09:42:14.659Z,100934.88
2023-05-13T09:44:42.233Z,100934.63
2023-05-13T09:47:13.898Z,100926.38
2023-05-13T09:49:56.898Z,100925.50
2023-05-13T09:52:23.508Z,100926.88
2023-05-13T09:54:50.114Z,100918.31
2023-05-13T09:57:16.755Z,100920.00
2023-05-13T09:59:43.390Z,100908.25
2023-05-13T10:02:13.031Z,100907.28
2023-05-13T10:04:40.162Z,100910.84
2023-05-13T10:07:08.620Z,100916.22
2023-05-13T10:09:36.786Z,100907.00
2023-05-13T10:12:06.752Z,100906.75
2023-05-13T10:14:33.469Z,100906.59
2023-05-13T10:17:00.417Z,100906.81
2023-05-13T10:19:27.219Z,100907.38
2023-05-13T10:21:54.459Z,100913.81
2023-05-13T10:24:22.229Z,100907.75
2023-05-13T10:26:52.727Z,100908.38
2023-05-13T10:29:19.477Z,100899.31
2023-05-13T10:31:47.878Z,100903.34
2023-05-13T10:34:14.681Z,100907.53
2023-05-13T10:37:14.004Z,100902.19
2023-05-13T10:40:06.629Z,100900.41
2023-05-13T10:42:44.919Z,100908.59
2023-05-13T10:45:11.541Z,100910.94
2023-05-13T10:47:39.165Z,100917.56
2023-05-13T10:50:07.713Z,100919.13
2023-05-13T10:53:00.485Z,100916.34
2023-05-13T10:55:28.013Z,100919.78
2023-05-13T10:58:12.594Z,100914.69
2023-05-13T11:00:41.484Z,100913.44
2023-05-13T11:03:12.234Z,100914.41
2023-05-13T11:05:41.397Z,100915.66
2023-05-13T11:08:08.078Z,100905.69
2023-05-13T11:10:34.932Z,100911.13
2023-05-13T11:13:09.575Z,100910.09
2023-05-13T11:15:48.985Z,100907.13
2023-05-13T11:18:15.707Z,100917.63
2023-05-13T11:20:53.482Z,100905.41
2023-05-13T11:23:21.147Z,100909.16
2023-05-13T11:26:12.450Z,100903.19
2023-05-13T11:29:00.366Z,100909.50
2023-05-13T11:31:29.094Z,100910.81
2023-05-13T11:34:09.617Z,100912.38
2023-05-13T11:36:38.500Z,100919.75
2023-05-13T11:39:22.538Z,100915.50
2023-05-13T11:41:54.773Z,100912.53
2023-05-13T11:44:23.017Z,100921.06
2023-05-13T11:46:56.669Z,100911.41
2023-05-13T11:49:55.977Z,100918.53
2023-05-13T11:52:22.683Z,100916.66
2023-05-13T11:54:54.608Z,100918.94
2023-05-13T11:57:28.632Z,100920.66
2023-05-13T11:59:59.910Z,100929.47
2023-05-13T12:02:29.384Z,100920.06
2023-05-13T12:04:59.909Z,100926.19
2023-05-13T12:07:27.437Z,100924.34
2023-05-13T12:09:57.601Z,100921.88
2023-05-13T12:12:25.278Z,100918.91
2023-05-13T12:14:53.000Z,100923.72
2023-05-13T12:17:20.876Z,100928.13
2023-05-13T12:20:06.797Z,100929.25
2023-05-13T12:22:37.748Z,100923.66
2023-05-13T12:25:35.795Z,100929.19
2023-05-13T12:28:09.274Z,100928.41
2023-05-13T12:30:41.000Z,100929.69
2023-05-13T12:33:18.922Z,100930.69
2023-05-13T12:35:48.429Z,100925.16
2023-05-13T12:38:20.011Z,100925.88
2023-05-13T12:40:47.997Z,100929.97
2023-05-13T12:43:16.646Z,100921.72
2023-05-13T12:45:45.977Z,100922.41
2023-05-13T12:48:14.468Z,100920.69
2023-05-13T12:50:41.098Z,100922.25
2023-05-13T12:53:07.947Z,100933.50
2023-05-13T12:55:39.926Z,100928.63
2023-05-13T12:58:10.980Z,100926.88
2023-05-13T13:00:37.977Z,100914.75
2023-05-13T13:03:04.788Z,100921.88
2023-05-13T13:05:31.944Z,100922.00
2023-05-13T13:07:58.645Z,100922.00
2023-05-13T13:10:25.227Z,100923.59
2023-05-13T13:12:52.277Z,100916.72
2023-05-13T13:15:18.990Z,100921.22
2023-05-13T13:17:45.693Z,100913.25
2023-05-13T13:20:12.557Z,100920.09
2023-05-13T13:22:39.265Z,100908.09
2023-05-13T13:25:06.864Z,100913.50
2023-05-13T13:27:35.037Z,100917.53
2023-05-13T13:30:01.885Z,100920.38
2023-05-13T13:32:28.469Z,100917.53
2023-05-13T13:34:55.178Z,100904.97
2023-05-13T13:37:21.947Z,100910.41
2023-05-13T13:39:48.501Z,100908.69
2023-05-13T13:42:15.086Z,100910.69
2023-05-13T13:44:41.625Z,100921.53
2023-05-13T13:47:09.689Z,100914.75
2023-05-13T13:49:36.443Z,100919.31
2023-05-13T13:52:03.045Z,100920.72
2023-05-13T13:54:29.691Z,100917.13
2023-05-13T13:56:56.377Z,100914.97
2023-05-13T13:59:23.186Z,100911.22
2023-05-13T14:01:49.831Z,100902.34
2023-05-13T14:04:20.299Z,100902.34
2023-05-13T14:06:47.174Z,100904.34
2023-05-13T14:09:13.866Z,100907.00
2023-05-13T14:11:40.514Z,100893.66
2023-05-13T14:14:08.369Z,100898.31
2023-05-13T14:16:35.876Z,100900.56
2023-05-13T14:19:02.651Z,100889.16
2023-05-13T14:21:29.288Z,100888.00
2023-05-13T14:23:55.924Z,100890.19
2023-05-13T14:26:22.510Z,100881.06
2023-05-13T14:28:49.082Z,100887.00
2023-05-13T14:31:15.859Z,100884.56
2023-05-13T14:33:42.443Z,100885.91
2023-05-13T14:36:11.137Z,100881.47
2023-05-13T14:38:39.838Z,100876.22
2023-05-13T14:41:06.435Z,100874.97
2023-05-13T14:43:33.051Z,100881.25
2023-05-13T14:45:59.696Z,100875.13
2023-05-13T14:48:26.787Z,100882.56
2023-05-13T14:50:54.114Z,100880.19
2023-05-13T14:53:20.922Z,100875.22
2023-05-13T14:55:49.417Z,100881.66
2023-05-13T14:58:18.022Z,100878.53
2023-05-13T15:00:44.762Z,100877.63
2023-05-13T15:03:11.853Z,100876.38
2023-05-13T15:05:38.822Z,100876.28
2023-05-13T15:08:05.466Z,100873.34
2023-05-13T15:10:32.059Z,100880.09
2023-05-13T15:12:59.026Z,100879.41
2023-05-13T15:15:25.701Z,100878.38
2023-05-13T15:17:52.904Z,100863.81
2023-05-13T15:20:19.672Z,100866.94
2023-05-13T15:22:46.347Z,100867.19
2023-05-13T15:25:13.119Z,100875.31
2023-05-13T15:27:39.709Z,100877.44
2023-05-13T15:30:07.156Z,100874.59
2023-05-13T15:32:33.792Z,100874.84
2023-05-13T15:35:00.396Z,100873.97
2023-05-13T15:37:27.058Z,100876.38
2023-05-13T15:39:54.256Z,100875.69
2023-05-13T15:42:21.375Z,100882.09
2023-05-13T15:44:47.947Z,100878.56
2023-05-13T15:47:14.582Z,100884.41
2023-05-13T15:49:41.372Z,100882.03
2023-05-13T15:52:07.920Z,100894.91
2023-05-13T15:54:34.721Z,100886.19
2023-05-13T15:57:01.337Z,100884.34
2023-05-13T15:59:27.893Z,100881.94
2023-05-13T16:01:54.556Z,100885.50
2023-05-13T16:04:21.305Z,100886.78
2023-05-13T16:06:47.901Z,100888.66
2023-05-13T16:09:14.590Z,100896.94
2023-05-13T16:11:43.371Z,100887.94
2023-05-13T16:14:10.018Z,100878.09
2023-05-13T16:16:36.592Z,100879.97
2023-05-13T16:19:03.944Z,100894.50
2023-05-13T16:21:31.708Z,100883.28
2023-05-13T16:23:58.419Z,100880.13
2023-05-13T16:26:25.040Z,100871.31
2023-05-13T16:28:51.894Z,100872.06
2023-05-13T16:31:18.651Z,100869.63
2023-05-13T16:33:45.272Z,100867.66
2023-05-13T16:36:12.004Z,100868.94
2023-05-13T16:38:41.378Z,100871.50
2023-05-13T16:41:08.658Z,100864.22
2023-05-13T16:43:35.279Z,100859.81
2023-05-13T16:46:01.982Z,100862.50
2023-05-13T16:48:28.719Z,100862.66
2023-05-13T16:50:56.270Z,100863.59
2023-05-13T16:53:23.252Z,100863.88
2023-05-13T16:55:50.207Z,100864.34
2023-05-13T16:58:17.370Z,100861.91
2023-05-13T17:00:44.537Z,100854.94
2023-05-13T17:03:13.341Z,100843.28
2023-05-13T17:05:40.448Z,100857.09
2023-05-13T17:08:06.989Z,100859.94
2023-05-13T17:10:33.718Z,100855.84
2023-05-13T17:13:00.309Z,100860.25
2023-05-13T17:15:26.956Z,100866.81
2023-05-13T17:17:53.623Z,100862.41
2023-05-13T17:20:20.494Z,100869.84
2023-05-13T17:22:47.609Z,100876.41
2023-05-13T17:25:14.876Z,100870.28
2023-05-13T17:27:41.542Z,100864.16
2023-05-13T17:30:09.052Z,100861.75
2023-05-13T17:32:35.914Z,100855.09
2023-05-13T17:35:04.078Z,100846.81
2023-05-13T17:37:30.678Z,100843.00
2023-05-13T17:40:00.742Z,100843.75
2023-05-13T17:42:29.025Z,100843.50
2023-05-13T17:44:56.056Z,100860.03
2023-05-13T17:47:22.770Z,100851.63
2023-05-13T17:49:49.619Z,100859.47
2023-05-13T17:52:16.187Z,100861.75
2023-05-13T17:54:42.752Z,100860.44
2023-05-13T17:57:11.027Z,100860.06
2023-05-13T17:59:37.773Z,100869.31
2023-05-13T18:02:04.525Z,100873.97
2023-05-13T18:04:31.255Z,100872.59
2023-05-13T18:06:57.856Z,100875.28
2023-05-13T18:09:24.520Z,100868.88
2023-05-13T18:11:51.137Z,100867.31
2023-05-13T18:14:17.791Z,100862.03
2023-05-13T18:16:44.465Z,100851.09
2023-05-13T18:19:11.090Z,100854.22
2023-05-13T18:21:37.804Z,100845.25
2023-05-13T18:24:04.704Z,100853.63
2023-05-13T18:26:31.272Z,100859.47
2023-05-13T18:28:57.808Z,100866.16
2023-05-13T18:31:24.442Z,100868.97
2023-05-13T18:33:51.108Z,100862.03
2023-05-13T18:36:17.756Z,100875.69
2023-05-13T18:38:45.920Z,100878.53
2023-05-13T18:41:12.618Z,100882.09
2023-05-13T18:43:39.189Z,100887.50
2023-05-13T18:46:06.191Z,100892.16
2023-05-13T18:48:32.771Z,100891.47
2023-05-13T18:50:59.437Z,100895.84
2023-05-13T18:53:26.046Z,100892.44
2023-05-13T18:55:52.928Z,100890.59
2023-05-13T18:58:19.565Z,100894.59
2023-05-13T19:00:46.296Z,100893.84
2023-05-13T19:03:12.976Z,100888.31
2023-05-13T19:05:39.648Z,100889.31
2023-05-13T19:08:07.994Z,100896.56
2023-05-13T19:10:39.364Z,100896.84
2023-05-13T19:13:07.189Z,100890.56
2023-05-13T19:15:34.208Z,100889.88
2023-05-13T19:18:01.128Z,100891.00
2023-05-13T19:20:27.961Z,100897.66
2023-05-13T19:22:54.505Z,100888.72
2023-05-13T19:25:21.110Z,100888.84
2023-05-13T19:27:49.374Z,100897.78
2023-05-13T19:30:16.138Z,100898.66
2023-05-13T19:32:43.686Z,100891.69
2023-05-13T19:35:11.163Z,100888.41
2023-05-13T19:37:37.806Z,100886.38
2023-05-13T19:40:05.033Z,100892.34
2023-05-13T19:42:31.702Z,100891.88
2023-05-13T19:44:58.255Z,100888.59
2023-05-13T19:47:26.923Z,100888.28
2023-05-13T19:49:53.618Z,100895.97
2023-05-13T19:52:20.260Z,100888.00
2023-05-13T19:54:46.823Z,100888.00
2023-05-13T19:57:13.455Z,100890.81
2023-05-13T19:59:41.680Z,100898.47
2023-05-13T20:02:08.827Z,100895.06
2023-05-13T20:04:35.676Z,100900.72
2023-05-13T20:07:02.284Z,100888.31
2023-05-13T20:09:28.865Z,100886.16
2023-05-13T20:11:55.526Z,100892.66
2023-05-13T20:14:28.747Z,100883.84
2023-05-13T20:16:55.398Z,100884.53
2023-05-13T20:19:22.161Z,100891.31
2023-05-13T20:21:48.835Z,100890.56
2023-05-13T20:24:15.781Z,100895.13
2023-05-13T20:26:42.327Z,100892.56
2023-05-13T20:29:08.856Z,100884.72
2023-05-13T20:31:35.496Z,100894.91
2023-05-13T20:34:03.412Z,100896.91
2023-05-13T20:36:30.122Z,100890.91
2023-05-13T20:38:56.670Z,100883.94
2023-05-13T20:41:23.851Z,100881.78
2023-05-13T20:43:50.584Z,100880.44
2023-05-13T20:46:17.527Z,100876.16
2023-05-13T20:48:44.198Z,100877.31
2023-05-13T20:51:10.765Z,100873.28
2023-05-13T20:53:37.728Z,100870.13
2023-05-13T20:56:04.926Z,100876.50
2023-05-13T20:58:31.531Z,100875.78
2023-05-13T21:00:58.174Z,100873.34
2023-05-13T21:03:25.132Z,100877.03
2023-05-13T21:05:51.819Z,100871.03
2023-05-13T21:08:18.468Z,100872.16
2023-05-13T21:10:45.063Z,100870.28
2023-05-13T21:13:11.832Z,100869.34
2023-05-13T21:15:38.673Z,100866.63
2023-05-13T21:18:05.459Z,100872.88
2023-05-13T21:20:32.784Z,100865.53
2023-05-13T21:23:00.984Z,100861.97
2023-05-13T21:25:27.718Z,100862.84
2023-05-13T21:27:54.404Z,100867.47
2023-05-13T21:30:21.095Z,100870.16
2023-05-13T21:32:47.860Z,100868.59
2023-05-13T21:35:14.472Z,100866.63
2023-05-13T21:37:41.087Z,100862.09
2023-05-13T21:40:08.705Z,100870.16
2023-05-13T21:42:35.761Z,100863.94
2023-05-13T21:45:02.920Z,100862.22
2023-05-13T21:47:29.653Z,100857.81
2023-05-13T21:49:56.440Z,100857.09
2023-05-13T21:52:23.036Z,100861.63
2023-05-13T21:54:49.704Z,100857.34
2023-05-13T21:57:16.676Z,100851.13
2023-05-13T21:59:43.272Z,100852.94
2023-05-13T22:02:10.213Z,100845.72
2023-05-13T22:04:36.954Z,100838.75
2023-05-13T22:07:03.658Z,100831.78
2023-05-13T22:09:30.250Z,100830.91
2023-05-13T22:11:56.824Z,100837.03
2023-05-13T22:14:23.396Z,100836.31
2023-05-13T22:17:00.924Z,100845.25
2023-05-13T22:19:34.973Z,100849.94
2023-05-13T22:22:01.743Z,100846.38
2023-05-13T22:24:28.295Z,100846.25
2023-05-13T22:26:54.889Z,100844.53
2023-05-13T22:29:21.560Z,100847.34
2023-05-13T22:31:48.164Z,100846.47
2023-05-13T22:34:14.888Z,100843.66
2023-05-13T22:36:43.810Z,100847.22
2023-05-13T22:39:12.229Z,100846.25
2023-05-13T22:41:38.968Z,100848.66
2023-05-13T22:44:05.774Z,100839.47
2023-05-13T22:46:32.479Z,100837.38
2023-05-13T22:48:59.163Z,100832.84
2023-05-13T22:51:25.751Z,100828.31
2023-05-13T22:53:52.334Z,100837.94
2023-05-13T22:56:18.955Z,100836.84
2023-05-13T22:58:46.132Z,100836.84
2023-05-13T23:01:13.004Z,100835.88
2023-05-13T23:03:39.637Z,100829.38
2023-05-13T23:06:06.362Z,100828.38
2023-05-13T23:08:32.953Z,100826.41
2023-05-13T23:10:59.600Z,100821.59
2023-05-13T23:13:26.295Z,100827.88
2023-05-13T23:15:52.843Z,100832.97
2023-05-13T23:18:19.630Z,100829.28
2023-05-13T23:20:51.180Z,100820.09
2023-05-13T23:23:17.808Z,100818.25
2023-05-13T23:25:48.248Z,100818.97
2023-05-13T23:28:15.190Z,100818.97
2023-05-13T23:30:42.043Z,100817.13
2023-05-13T23:33:08.980Z,100822.53
2023-05-13T23:35:35.785Z,100818.97
2023-05-13T23:38:02.589Z,100818.97
2023-05-13T23:40:29.182Z,100823.41
2023-05-13T23:42:55.755Z,100822.25
2023-05-13T23:45:22.423Z,100823.13
2023-05-13T23:47:50.358Z,100815.75
2023-05-13T23:50:17.061Z,100816.72
2023-05-13T23:52:43.775Z,100810.63
2023-05-13T23:55:10.483Z,100811.47
2023-05-13T23:57:37.035Z,100803.25
